createdAt,value
2023-01-17T05:16:55.536Z,400
2023-01-17T05:22:00.911Z,1119
2023-01-17T05:27:07.380Z,1144
2023-01-17T05:32:13.748Z,1165
2023-01-17T05:37:20.330Z,1183
2023-01-17T05:42:26.723Z,1194
2023-01-17T05:47:33.321Z,1204
2023-01-17T05:52:39.697Z,1214
2023-01-17T05:57:46.249Z,1223
2023-01-17T06:02:52.632Z,1235
2023-01-17T06:07:59.199Z,1216
2023-01-17T06:13:05.585Z,1199
2023-01-17T06:18:12.186Z,1197
2023-01-17T06:23:18.531Z,1212
2023-01-17T06:28:25.146Z,1207
2023-01-17T06:33:31.537Z,1192
2023-01-17T06:38:38.136Z,1135
2023-01-17T06:43:44.468Z,1113
2023-01-17T06:48:51.039Z,1091
2023-01-17T06:53:57.419Z,1075
2023-01-17T06:59:02.834Z,1057
2023-01-17T07:04:09.272Z,1042
2023-01-17T07:09:15.874Z,1032
2023-01-17T07:14:22.262Z,1016
2023-01-17T07:24:35.296Z,715
2023-01-17T07:29:41.965Z,635
2023-01-17T07:34:48.355Z,640
2023-01-17T07:39:55.024Z,639
2023-01-17T07:45:01.391Z,649
2023-01-17T07:50:08.074Z,658
2023-01-17T07:55:14.430Z,671
2023-01-17T08:00:21.221Z,682
2023-01-17T08:05:27.502Z,684
2023-01-17T08:10:34.198Z,693
2023-01-17T08:15:40.546Z,699
2023-01-17T08:20:47.265Z,698
2023-01-17T08:25:53.578Z,686
2023-01-17T08:31:00.275Z,718
2023-01-17T08:36:06.635Z,759
2023-01-17T08:41:13.284Z,799
2023-01-17T08:46:19.842Z,800
